createdAt,value
2018-12-01T00:00:19.979Z,5.77
2018-12-01T00:02:48.551Z,6.07
2018-12-01T00:05:17.098Z,5.60
2018-12-01T00:07:45.647Z,5.53
2018-12-01T00:10:14.164Z,6.53
2018-12-01T00:12:42.682Z,5.90
2018-12-01T00:15:14.179Z,6.13
2018-12-01T00:17:42.655Z,6.17
2018-12-01T00:20:15.371Z,6.63
2018-12-01T00:22:44.006Z,6.20
2018-12-01T00:25:12.578Z,6.37
2018-12-01T00:27:41.096Z,5.97
2018-12-01T00:30:13.764Z,6.90
2018-12-01T00:32:42.923Z,6.43
2018-12-01T00:35:12.617Z,6.17
2018-12-01T00:37:41.137Z,6.93
2018-12-01T00:40:17.251Z,6.33
2018-12-01T00:42:45.763Z,6.93
2018-12-01T00:45:17.875Z,6.77
2018-12-01T00:47:48.735Z,6.80
2018-12-01T00:50:18.284Z,6.60
2018-12-01T00:52:47.795Z,7.50
2018-12-01T00:55:17.389Z,7.07
2018-12-01T00:57:45.952Z,6.23
2018-12-01T01:00:27.048Z,7.10
2018-12-01T01:02:59.004Z,6.83
2018-12-01T01:05:30.163Z,7.43
2018-12-01T01:08:00.082Z,7.13
2018-12-01T01:10:34.633Z,7.23
2018-12-01T01:13:02.108Z,6.43
2018-12-01T01:15:32.217Z,6.70
2018-12-01T01:18:00.780Z,7.83
2018-12-01T01:20:30.682Z,7.53
2018-12-01T01:22:59.181Z,7.27
2018-12-01T01:25:27.724Z,7.93
2018-12-01T01:27:56.209Z,7.80
2018-12-01T01:30:24.921Z,7.67
2018-12-01T01:33:04.571Z,7.27
2018-12-01T01:35:33.174Z,8.10
2018-12-01T01:38:01.715Z,6.30
2018-12-01T01:40:30.208Z,7.43
2018-12-01T01:42:58.722Z,7.30
2018-12-01T01:45:27.203Z,7.50
2018-12-01T01:47:55.691Z,7.30
2018-12-01T01:50:24.192Z,7.77
2018-12-01T01:52:52.635Z,7.87
2018-12-01T01:55:21.172Z,6.70
2018-12-01T01:57:49.701Z,7.20
2018-12-01T02:00:21.099Z,7.50
2018-12-01T02:04:19.031Z,8.13
2018-12-01T02:06:47.507Z,6.97
2018-12-01T02:09:16.044Z,7.07
2018-12-01T02:11:44.549Z,7.27
2018-12-01T02:14:13.084Z,6.93
2018-12-01T02:16:41.515Z,7.03
2018-12-01T02:19:10.132Z,7.00
2018-12-01T02:21:39.156Z,7.13
2018-12-01T02:24:07.678Z,7.60
2018-12-01T02:26:36.182Z,7.50
2018-12-01T02:29:04.741Z,7.70
2018-12-01T02:31:33.243Z,7.37
2018-12-01T02:34:01.711Z,6.97
2018-12-01T02:36:30.195Z,7.47
2018-12-01T02:38:58.738Z,6.33
2018-12-01T02:41:27.287Z,6.97
2018-12-01T02:44:06.922Z,6.90
2018-12-01T02:46:46.493Z,7.03
2018-12-01T02:49:15.027Z,6.30
2018-12-01T02:51:43.469Z,7.67
2018-12-01T02:54:11.933Z,6.90
2018-12-01T02:56:40.405Z,7.43
2018-12-01T02:59:09.007Z,7.53
2018-12-01T03:01:37.487Z,6.63
2018-12-01T03:04:06.184Z,7.30
2018-12-01T03:06:34.637Z,6.53
2018-12-01T03:09:03.428Z,6.53
2018-12-01T03:11:31.870Z,7.53
2018-12-01T03:14:00.390Z,6.33
2018-12-01T03:16:29.021Z,6.67
2018-12-01T03:18:57.661Z,6.90
2018-12-01T03:21:26.166Z,6.47
2018-12-01T03:23:54.933Z,6.33
2018-12-01T03:26:23.492Z,6.67
2018-12-01T03:28:52.066Z,6.37
2018-12-01T03:31:20.597Z,6.23
2018-12-01T03:33:49.263Z,6.03
2018-12-01T03:36:17.939Z,5.70
2018-12-01T03:38:46.787Z,6.70
2018-12-01T03:41:15.534Z,5.97
2018-12-01T03:43:44.149Z,5.60
2018-12-01T03:46:13.010Z,6.37
2018-12-01T03:48:41.630Z,6.13
2018-12-01T03:51:10.377Z,6.03
2018-12-01T03:53:39.030Z,5.93
2018-12-01T03:56:07.828Z,6.17
2018-12-01T03:58:36.463Z,6.80
2018-12-01T04:01:05.220Z,6.33
2018-12-01T04:03:33.888Z,6.03
2018-12-01T04:06:03.145Z,6.27
2018-12-01T04:08:31.911Z,5.50
2018-12-01T04:11:00.480Z,6.77
2018-12-01T04:13:29.176Z,5.67
2018-12-01T04:15:57.817Z,6.23
2018-12-01T04:18:26.348Z,5.57
2018-12-01T04:20:54.911Z,6.40
2018-12-01T04:23:23.983Z,6.13
2018-12-01T04:25:52.917Z,5.53
2018-12-01T04:28:21.439Z,5.90
2018-12-01T04:30:50.088Z,5.67
2018-12-01T04:33:18.579Z,6.07
2018-12-01T04:35:47.227Z,5.97
2018-12-01T04:38:15.731Z,5.83
2018-12-01T04:40:44.228Z,6.07
2018-12-01T04:43:12.725Z,5.20
2018-12-01T04:45:41.258Z,5.30
2018-12-01T04:48:09.770Z,5.70
2018-12-01T04:50:38.277Z,5.10
2018-12-01T04:53:07.227Z,5.40
2018-12-01T04:55:35.719Z,5.27
2018-12-01T04:58:04.203Z,5.63
2018-12-01T05:00:32.651Z,4.60
2018-12-01T05:03:01.202Z,5.50
2018-12-01T05:05:29.694Z,5.23
2018-12-01T05:07:58.245Z,5.30
2018-12-01T05:10:26.720Z,4.80
2018-12-01T05:12:55.287Z,4.60
2018-12-01T05:15:23.869Z,4.70
2018-12-01T05:17:52.365Z,4.87
2018-12-01T05:20:22.893Z,5.00
2018-12-01T05:22:52.311Z,4.63
2018-12-01T05:25:20.855Z,5.13
2018-12-01T05:27:49.394Z,4.47
2018-12-01T05:30:17.906Z,4.93
2018-12-01T05:32:46.428Z,4.77
2018-12-01T05:35:19.558Z,4.90
2018-12-01T05:37:48.067Z,5.07
2018-12-01T05:40:16.572Z,5.57
2018-12-01T05:42:45.090Z,4.80
2018-12-01T05:45:21.048Z,5.50
2018-12-01T05:47:54.576Z,4.80
2018-12-01T05:50:24.522Z,5.17
2018-12-01T05:52:57.577Z,5.70
2018-12-01T05:55:26.230Z,5.53
2018-12-01T05:57:55.332Z,6.10
2018-12-01T06:00:23.807Z,5.33
2018-12-01T06:02:52.349Z,5.27
2018-12-01T06:05:21.194Z,5.33
2018-12-01T06:07:49.744Z,6.07
2018-12-01T06:10:21.517Z,5.33
2018-12-01T06:12:54.315Z,5.13
2018-12-01T06:15:22.881Z,6.10
2018-12-01T06:17:51.398Z,5.97
2018-12-01T06:20:22.646Z,5.53
2018-12-01T06:22:51.856Z,6.07
2018-12-01T06:25:23.436Z,6.73
2018-12-01T06:27:53.236Z,6.57
2018-12-01T06:30:21.824Z,6.40
2018-12-01T06:32:52.713Z,5.70
2018-12-01T06:35:21.239Z,6.30
2018-12-01T06:37:49.798Z,6.67
2018-12-01T06:40:20.274Z,6.93
2018-12-01T06:42:49.055Z,5.67
2018-12-01T06:45:18.953Z,5.83
2018-12-01T06:47:47.493Z,5.13
2018-12-01T06:50:20.516Z,5.73
2018-12-01T06:52:49.350Z,6.77
2018-12-01T06:55:17.849Z,7.80
2018-12-01T06:57:47.087Z,7.47
2018-12-01T07:00:24.146Z,5.63
2018-12-01T07:02:53.646Z,6.50
2018-12-01T07:05:22.210Z,6.63
2018-12-01T07:07:50.678Z,5.63
2018-12-01T07:10:21.161Z,6.33
2018-12-01T07:12:56.153Z,6.07
2018-12-01T07:15:33.603Z,6.43
2018-12-01T07:18:02.093Z,6.67
2018-12-01T07:20:30.574Z,5.70
2018-12-01T07:22:59.104Z,6.63
2018-12-01T07:25:28.463Z,6.10
2018-12-01T07:27:56.970Z,7.07
2018-12-01T07:30:25.461Z,5.87
2018-12-01T07:32:53.976Z,6.17
2018-12-01T07:35:22.480Z,5.50
2018-12-01T07:37:52.158Z,5.83
2018-12-01T07:40:20.621Z,5.57
2018-12-01T07:42:49.174Z,6.43
2018-12-01T07:45:17.687Z,6.03
2018-12-01T07:47:46.251Z,6.43
2018-12-01T07:50:15.974Z,5.93
2018-12-01T07:52:45.951Z,6.80
2018-12-01T07:55:14.462Z,6.40
2018-12-01T07:57:42.990Z,5.93
2018-12-01T08:00:13.668Z,5.73
2018-12-01T08:02:43.579Z,5.70
2018-12-01T08:05:12.395Z,6.17
2018-12-01T08:07:40.871Z,5.83
2018-12-01T08:10:11.090Z,6.20
2018-12-01T08:12:39.566Z,5.60
2018-12-01T08:15:13.111Z,5.97
2018-12-01T08:17:41.558Z,6.67
2018-12-01T08:20:11.242Z,7.47
2018-12-01T08:22:39.770Z,6.30
2018-12-01T08:25:13.982Z,5.53
2018-12-01T08:27:42.476Z,5.83
2018-12-01T08:30:17.328Z,6.27
2018-12-01T08:32:45.791Z,5.40
2018-12-01T08:35:14.273Z,6.83
2018-12-01T08:37:44.642Z,6.00
2018-12-01T08:40:15.659Z,5.90
2018-12-01T08:42:44.157Z,5.73
2018-12-01T08:45:13.366Z,5.10
2018-12-01T08:47:43.083Z,4.87
2018-12-01T08:50:12.914Z,5.47
2018-12-01T08:52:41.517Z,5.40
2018-12-01T08:55:11.536Z,5.80
2018-12-01T08:57:40.085Z,5.97
2018-12-01T09:00:13.920Z,4.87
2018-12-01T09:02:43.310Z,5.43
2018-12-01T09:05:11.810Z,6.00
2018-12-01T09:07:40.310Z,5.23
2018-12-01T09:10:09.924Z,5.00
2018-12-01T09:12:38.491Z,5.13
2018-12-01T09:15:14.527Z,5.63
2018-12-01T09:17:43.160Z,5.90
2018-12-01T09:20:12.607Z,5.27
2018-12-01T09:22:42.443Z,5.93
2018-12-01T09:25:13.209Z,5.23
2018-12-01T09:27:41.726Z,6.47
2018-12-01T09:30:20.322Z,5.30
2018-12-01T09:32:48.907Z,5.47
2018-12-01T09:35:17.426Z,6.20
2018-12-01T09:37:46.008Z,6.20
2018-12-01T09:40:17.675Z,6.37
2018-12-01T09:42:46.644Z,6.30
2018-12-01T09:45:17.212Z,6.30
2018-12-01T09:47:47.424Z,6.70
2018-12-01T09:50:16.278Z,5.87
2018-12-01T09:52:46.121Z,7.03
2018-12-01T09:55:16.724Z,5.83
2018-12-01T09:57:45.813Z,6.63
2018-12-01T10:00:18.662Z,7.97
2018-12-01T10:02:48.360Z,6.60
2018-12-01T10:05:18.024Z,7.30
2018-12-01T10:07:46.633Z,7.97
2018-12-01T10:10:19.758Z,6.23
2018-12-01T10:12:49.285Z,6.47
2018-12-01T10:15:19.871Z,6.90
2018-12-01T10:17:48.403Z,6.60
2018-12-01T10:20:19.294Z,7.93
2018-12-01T10:22:47.800Z,7.40
2018-12-01T10:25:17.353Z,7.93
2018-12-01T10:27:46.443Z,7.90
2018-12-01T10:30:19.909Z,8.40
2018-12-01T10:32:49.020Z,7.83
2018-12-01T10:35:18.742Z,7.53
2018-12-01T10:37:56.640Z,9.03
2018-12-01T10:40:25.154Z,7.57
2018-12-01T10:42:53.667Z,8.87
2018-12-01T10:51:51.817Z,8.07
2018-12-01T10:54:20.854Z,8.30
2018-12-01T10:56:49.446Z,7.10
2018-12-01T10:59:18.048Z,8.57
2018-12-01T11:02:55.610Z,8.73
2018-12-01T11:05:20.824Z,8.00
2018-12-01T11:07:49.361Z,7.67
2018-12-01T11:10:17.906Z,7.83
2018-12-01T11:12:46.391Z,7.00
2018-12-01T11:15:14.942Z,7.77
2018-12-01T11:17:43.458Z,8.23
2018-12-01T11:20:12.056Z,7.17
2018-12-01T11:22:40.624Z,8.17
2018-12-01T11:25:10.609Z,7.90
2018-12-01T11:27:39.331Z,8.13
2018-12-01T11:30:12.403Z,7.97
2018-12-01T11:32:41.057Z,7.27
2018-12-01T11:35:09.725Z,7.53
2018-12-01T11:37:38.357Z,7.47
2018-12-01T11:40:09.597Z,7.57
2018-12-01T11:42:38.201Z,8.07
2018-12-01T11:45:10.941Z,7.60
2018-12-01T11:47:39.555Z,9.07
2018-12-01T11:50:14.260Z,7.50
2018-12-01T11:52:42.829Z,8.10
2018-12-01T11:55:14.728Z,7.07
2018-12-01T11:57:43.325Z,7.93
2018-12-01T12:00:16.648Z,7.40
2018-12-01T12:02:45.361Z,7.53
2018-12-01T12:05:14.837Z,7.93
2018-12-01T12:07:54.654Z,7.10
2018-12-01T12:10:23.359Z,6.07
2018-12-01T12:12:51.899Z,6.63
2018-12-01T12:15:21.226Z,6.57
2018-12-01T12:17:53.063Z,6.40
2018-12-01T12:20:23.018Z,7.10
2018-12-01T12:22:51.515Z,6.03
2018-12-01T12:25:20.009Z,6.30
2018-12-01T12:27:48.605Z,7.17
2018-12-01T12:30:18.309Z,6.57
2018-12-01T12:32:47.149Z,6.77
2018-12-01T12:35:16.741Z,6.40
2018-12-01T12:37:45.314Z,6.37
2018-12-01T12:40:18.167Z,7.30
2018-12-01T12:42:46.836Z,7.20
2018-12-01T12:45:15.693Z,6.23
2018-12-01T12:47:44.571Z,6.83
2018-12-01T12:50:15.783Z,6.63
2018-12-01T12:52:45.958Z,6.57
2018-12-01T12:55:18.228Z,6.37
2018-12-01T12:57:46.809Z,6.53
2018-12-01T13:00:18.327Z,6.10
2018-12-01T13:02:50.885Z,5.97
2018-12-01T13:05:22.741Z,6.53
2018-12-01T13:07:51.318Z,6.30
2018-12-01T13:10:22.108Z,5.87
2018-12-01T13:12:51.792Z,6.40
2018-12-01T13:15:19.258Z,7.10
2018-12-01T13:17:47.795Z,6.17
2018-12-01T13:20:17.428Z,7.47
2018-12-01T13:22:46.975Z,7.03
2018-12-01T13:26:45.458Z,7.27
2018-12-01T13:29:14.063Z,7.43
2018-12-01T13:31:42.742Z,6.87
2018-12-01T13:34:11.347Z,6.63
2018-12-01T13:36:39.883Z,7.40
2018-12-01T13:39:09.887Z,7.80
2018-12-01T13:41:38.525Z,7.87
2018-12-01T13:44:07.083Z,7.50
2018-12-01T13:46:35.655Z,7.37
2018-12-01T13:49:04.312Z,7.67
2018-12-01T13:51:32.962Z,7.20
2018-12-01T13:54:01.517Z,7.77
2018-12-01T13:56:30.198Z,7.90
2018-12-01T13:58:58.897Z,8.20
2018-12-01T14:01:27.432Z,7.47
2018-12-01T14:04:00.366Z,7.03
2018-12-01T14:06:28.973Z,6.67
2018-12-01T14:08:57.603Z,7.23
2018-12-01T14:11:26.228Z,7.23
2018-12-01T14:13:54.816Z,6.93
2018-12-01T14:16:23.316Z,6.10
2018-12-01T14:18:51.877Z,6.63
2018-12-01T14:21:20.388Z,7.10
2018-12-01T14:23:49.016Z,6.67
2018-12-01T14:26:17.619Z,6.53
2018-12-01T14:28:46.187Z,6.33
2018-12-01T14:31:14.969Z,5.97
2018-12-01T14:33:43.610Z,6.13
2018-12-01T14:36:12.183Z,5.53
2018-12-01T14:38:40.724Z,5.57
2018-12-01T14:41:09.240Z,5.27
2018-12-01T14:43:38.599Z,5.37
2018-12-01T14:46:07.169Z,5.73
2018-12-01T14:48:35.969Z,5.60
2018-12-01T14:51:04.533Z,5.47
2018-12-01T14:53:33.137Z,6.20
2018-12-01T14:56:01.756Z,5.70
2018-12-01T14:58:30.217Z,6.20
2018-12-01T15:00:58.798Z,5.93
2018-12-01T15:03:27.369Z,4.77
2018-12-01T15:05:55.869Z,5.77
2018-12-01T15:08:24.403Z,5.40
2018-12-01T15:10:52.959Z,5.63
2018-12-01T15:13:21.544Z,4.73
2018-12-01T15:15:51.061Z,4.93
2018-12-01T15:18:20.405Z,5.20
2018-12-01T15:20:49.043Z,4.83
2018-12-01T15:23:17.972Z,4.37
2018-12-01T15:25:46.501Z,4.10
2018-12-01T15:28:14.997Z,4.53
2018-12-01T15:30:43.531Z,4.83
2018-12-01T15:33:13.338Z,4.50
2018-12-01T15:35:44.450Z,4.53
2018-12-01T15:38:14.285Z,4.70
2018-12-01T15:40:45.545Z,5.50
2018-12-01T15:43:14.083Z,4.33
2018-12-01T15:45:42.639Z,5.10
2018-12-01T15:48:11.166Z,4.53
2018-12-01T15:50:39.716Z,4.73
2018-12-01T15:53:11.572Z,4.23
2018-12-01T15:55:40.142Z,4.63
2018-12-01T15:58:08.854Z,4.70
2018-12-01T16:00:38.177Z,3.83
2018-12-01T16:03:07.241Z,4.30
2018-12-01T16:05:35.743Z,5.20
2018-12-01T16:08:04.284Z,4.10
2018-12-01T16:10:32.859Z,3.70
2018-12-01T16:13:08.149Z,4.70
2018-12-01T16:15:38.955Z,3.90
2018-12-01T16:18:09.156Z,4.93
2018-12-01T16:20:37.651Z,4.00
2018-12-01T16:23:06.249Z,4.37
2018-12-01T16:25:34.816Z,3.70
2018-12-01T16:28:03.316Z,3.33
2018-12-01T16:30:34.296Z,4.57
2018-12-01T16:33:08.029Z,3.37
2018-12-01T16:35:36.524Z,3.20
2018-12-01T16:38:05.928Z,3.70
2018-12-01T16:40:40.992Z,3.07
2018-12-01T16:43:11.177Z,3.73
2018-12-01T16:45:40.204Z,3.47
2018-12-01T16:48:08.721Z,4.00
2018-12-01T16:50:37.230Z,3.53
2018-12-01T16:53:07.376Z,2.80
2018-12-01T16:55:35.918Z,3.33
2018-12-01T16:58:04.544Z,3.17
2018-12-01T17:00:33.100Z,3.10
2018-12-01T17:03:01.658Z,3.17
2018-12-01T17:05:31.944Z,3.90
2018-12-01T17:08:00.442Z,3.70
2018-12-01T17:10:28.967Z,3.50
2018-12-01T17:12:58.421Z,3.40
2018-12-01T17:15:26.620Z,2.87
2018-12-01T17:17:55.294Z,4.00
2018-12-01T17:20:23.988Z,3.60
2018-12-01T17:22:54.929Z,4.13
2018-12-01T17:25:23.467Z,3.43
2018-12-01T17:27:53.026Z,3.40
2018-12-01T17:30:26.591Z,4.40
2018-12-01T17:32:55.851Z,4.27
2018-12-01T17:35:26.650Z,3.80
2018-12-01T17:37:56.707Z,4.40
2018-12-01T17:40:36.047Z,4.73
2018-12-01T17:43:06.072Z,4.20
2018-12-01T17:45:34.578Z,4.27
2018-12-01T17:48:03.261Z,4.87
2018-12-01T17:50:31.846Z,4.87
2018-12-01T17:53:00.351Z,4.83
2018-12-01T17:55:29.720Z,4.53
2018-12-01T17:57:58.253Z,4.90
2018-12-01T18:00:28.052Z,5.77
2018-12-01T18:02:59.058Z,4.80
2018-12-01T18:05:34.311Z,5.30
2018-12-01T18:08:03.202Z,4.57
2018-12-01T18:10:31.667Z,5.53
2018-12-01T18:13:00.162Z,5.30
2018-12-01T18:15:28.708Z,4.03
2018-12-01T18:17:57.209Z,4.87
2018-12-01T18:20:25.738Z,5.17
2018-12-01T18:22:56.510Z,6.23
2018-12-01T18:25:25.362Z,4.83
2018-12-01T18:27:55.381Z,5.40
2018-12-01T18:30:32.899Z,4.67
2018-12-01T18:33:03.630Z,5.17
2018-12-01T18:35:32.153Z,5.00
2018-12-01T18:38:00.669Z,4.97
2018-12-01T18:40:29.129Z,5.40
2018-12-01T18:42:57.699Z,5.27
2018-12-01T18:45:26.245Z,5.10
2018-12-01T18:47:54.762Z,4.23
2018-12-01T18:50:23.271Z,4.53
2018-12-01T18:52:57.164Z,4.77
2018-12-01T18:55:26.849Z,4.30
2018-12-01T18:57:55.440Z,4.70
2018-12-01T19:00:26.702Z,5.50
2018-12-01T19:02:55.173Z,5.13
2018-12-01T19:05:23.748Z,3.80
2018-12-01T19:07:52.290Z,4.30
2018-12-01T19:10:20.859Z,4.20
2018-12-01T19:12:49.375Z,5.30
2018-12-01T19:15:18.464Z,5.00
2018-12-01T19:17:48.297Z,4.33
2018-12-01T19:20:17.769Z,4.60
2018-12-01T19:22:47.510Z,3.87
2018-12-01T19:25:18.082Z,4.80
2018-12-01T19:27:46.730Z,4.47
2018-12-01T19:30:17.312Z,3.93
2018-12-01T19:32:48.053Z,3.53
2018-12-01T19:35:17.280Z,3.27
2018-12-01T19:37:47.221Z,3.60
2018-12-01T19:40:19.787Z,3.67
2018-12-01T19:42:48.291Z,3.87
2018-12-01T19:45:16.810Z,3.20
2018-12-01T19:47:45.380Z,3.20
2018-12-01T19:50:18.702Z,3.50
2018-12-01T19:52:47.246Z,3.07
2018-12-01T19:55:16.162Z,2.93
2018-12-01T19:57:45.583Z,2.57
2018-12-01T20:00:15.306Z,3.47
2018-12-01T20:02:43.881Z,2.90
2018-12-01T20:05:13.661Z,2.83
2018-12-01T20:07:42.505Z,2.90
2018-12-01T20:10:19.265Z,2.47
2018-12-01T20:12:52.473Z,2.80
2018-12-01T20:15:33.632Z,2.53
2018-12-01T20:18:04.504Z,2.90
2018-12-01T20:20:33.637Z,2.63
2018-12-01T20:23:02.265Z,2.60
2018-12-01T20:25:30.800Z,2.20
2018-12-01T20:27:59.409Z,2.67
2018-12-01T20:30:27.987Z,2.10
2018-12-01T20:32:56.533Z,2.47
2018-12-01T20:35:28.089Z,2.20
2018-12-01T20:38:15.686Z,2.60
2018-12-01T20:40:44.260Z,2.30
2018-12-01T20:43:12.799Z,2.00
2018-12-01T20:45:41.352Z,2.60
2018-12-01T20:48:09.868Z,2.23
2018-12-01T20:50:38.307Z,2.20
2018-12-01T20:53:07.775Z,2.60
2018-12-01T20:55:36.331Z,2.10
2018-12-01T20:58:06.980Z,2.50
2018-12-01T21:00:35.486Z,2.30
2018-12-01T21:03:04.035Z,2.00
2018-12-01T21:05:32.541Z,2.30
2018-12-01T21:08:02.482Z,1.80
2018-12-01T21:10:32.092Z,1.90
2018-12-01T21:13:03.059Z,2.17
2018-12-01T21:15:31.573Z,2.20
2018-12-01T21:18:01.105Z,2.17
2018-12-01T21:20:29.577Z,2.00
2018-12-01T21:22:58.105Z,1.93
2018-12-01T21:25:29.257Z,2.10
2018-12-01T21:27:59.687Z,2.20
2018-12-01T21:30:28.990Z,2.00
2018-12-01T21:33:00.341Z,2.20
2018-12-01T21:35:28.832Z,2.10
2018-12-01T21:37:57.404Z,1.77
2018-12-01T21:40:25.948Z,1.90
2018-12-01T21:42:54.439Z,1.73
2018-12-01T21:45:23.013Z,1.70
2018-12-01T21:47:51.521Z,1.83
2018-12-01T21:50:21.421Z,1.90
2018-12-01T21:52:53.100Z,1.83
2018-12-01T21:55:21.985Z,2.10
2018-12-01T21:57:51.134Z,1.60
2018-12-01T22:00:22.725Z,1.90
2018-12-01T22:02:53.159Z,1.80
2018-12-01T22:05:23.509Z,1.57
2018-12-01T22:07:52.031Z,1.40
2018-12-01T22:10:20.561Z,1.60
2018-12-01T22:12:49.051Z,1.70
2018-12-01T22:15:18.968Z,1.73
2018-12-01T22:17:47.636Z,1.50
2018-12-01T22:20:18.449Z,1.53
2018-12-01T22:22:46.971Z,1.30
2018-12-01T22:25:15.531Z,1.50
2018-12-01T22:27:44.099Z,1.80
2018-12-01T22:30:19.659Z,1.90
2018-12-01T22:32:52.697Z,2.00
2018-12-01T22:35:24.220Z,1.53
2018-12-01T22:37:53.469Z,1.80
2018-12-01T22:40:26.109Z,1.70
2018-12-01T22:42:58.148Z,1.47
2018-12-01T22:45:26.645Z,2.00
2018-12-01T22:47:55.168Z,1.83
2018-12-01T22:50:23.751Z,1.80
2018-12-01T22:52:53.100Z,2.13
2018-12-01T22:55:23.857Z,1.93
2018-12-01T22:57:55.677Z,1.97
2018-12-01T23:00:30.004Z,1.80
2018-12-01T23:02:58.553Z,1.50
2018-12-01T23:05:27.095Z,2.13
2018-12-01T23:07:55.610Z,1.93
2018-12-01T23:10:24.403Z,1.93
2018-12-01T23:12:52.965Z,1.60
2018-12-01T23:15:21.442Z,1.93
2018-12-01T23:17:49.984Z,1.93
2018-12-01T23:20:19.778Z,2.30
2018-12-01T23:22:49.078Z,1.97
2018-12-01T23:25:17.685Z,2.17
2018-12-01T23:27:46.213Z,2.20
2018-12-01T23:30:17.038Z,1.90
2018-12-01T23:32:47.115Z,2.10
2018-12-01T23:35:15.683Z,1.90
2018-12-01T23:37:44.181Z,2.00
2018-12-01T23:40:13.499Z,2.30
2018-12-01T23:42:42.241Z,2.13
2018-12-01T23:45:19.313Z,2.03
2018-12-01T23:47:48.288Z,2.43
2018-12-01T23:50:22.382Z,2.20
2018-12-01T23:52:52.896Z,2.30
2018-12-01T23:55:21.425Z,2.23
2018-12-01T23:57:49.940Z,2.20
